Due to severe server failure at the provider, not all demo sites are operational. Will take some days to rebuilt everything.

Demonstration site - Click on the  for more information

This is an optional block. Switch it on/off in your settings-file: $SITE['bannerTop'] = false; or $SITE['bannerBottom'] = false;

You can display ads, any other important text or photo’s using text / html or PHP code.

You can place one or more at the top and or bottom and it can all be different for content / size .



Visit our other weather sites:

Template documentation
and downloads

And another site



Nearby METAR Reports

   
EBAW - Antwerp
Updated: 09-08-2020 18:20
Clear  
Clear  
   Wind: NNE 7.4 km/h
Wind: NNE 7.4 km/h
Temperature: 34°C
Dew Point: 14°C
Humidity: 30%
Barometer: 1014 hPa
Visibility: More than 10 km
Cloud details: Clear ft
EBAW 091620Z 03004KT 340V080 CAVOK 34/14 Q1014 NOSIG
EBLG - Liège
Updated: 09-08-2020 18:20
Clear  
Clear  
   Wind: ESE 11.1 km/h
Wind: ESE 11.1 km/h
Temperature: 31°C
Dew Point: 15°C
Humidity: 38%
Barometer: 1015 hPa
Visibility: More than 10 km
Cloud details: Clear ft
EBLG 091620Z 11006KT CAVOK 31/15 Q1015 NOSIG
EBCV - Mons/Bergen
Updated: 09-08-2020 18:25
Few Clouds  
Few Clouds  
   Wind: ESE 7.4 km/h
Wind: ESE 7.4 km/h
Temperature: 35°C
Dew Point: 15°C
Humidity: 30%
Barometer: 1014 hPa
Clouds: Few Clouds
Visibility: More than 10 km
Cloud details: Few Clouds 24000 ft
EBCV 091625Z AUTO 11004KT 9999 FEW240/// 35/15 Q1014 BLU
EHBK - Maastricht
Updated: 09-08-2020 18:25
Partly Cloudy  
Partly Cloudy  
   Wind: ESE 11.1 km/h
Wind: ESE 11.1 km/h
Temperature: 30°C
Heat Index: 31°C
Dew Point: 19°C
Humidity: 52%
Barometer: 1015 hPa
Clouds: Partly Cloudy
Visibility: More than 10 km
Cloud details: Partly Cloudy ft
EHBK 091625Z AUTO 11006KT 070V150 9999 NSC 30/19 Q1015 RETS TEMPO 6000 SHRA SCT095CB
ELLX - Luxemburg
Updated: 09-08-2020 18:20
Partly Cloudy  
Partly Cloudy  
   Wind: ENE 27.8 km/h
Wind: ENE 27.8 km/h
Temperature: 32°C
Dew Point: 14°C
Humidity: 33%
Barometer: 1016 hPa
Clouds: Partly Cloudy
Visibility: More than 10 km
Cloud details: Partly Cloudy 7500 ft
ELLX 091620Z 06015KT 9999 SCT075TCU 32/14 Q1016 NOSIG
EBOS - Oostende
Updated: 09-08-2020 18:20
Clear  
Clear  
   Wind: NE 22.2 km/h
Wind: NE 22.2 km/h
Temperature: 27°C
Heat Index: 28°C
Dew Point: 19°C
Humidity: 62%
Barometer: 1015 hPa
Visibility: More than 10 km
Cloud details: Clear ft
EBOS 091620Z 04012KT CAVOK 27/19 Q1015 NOSIG

Script developed by  Saratoga-weather.org Adapted for the template by  Weerstation Leuven

This is an optional block. Switch it on/off in your settings-file: $SITE['bannerTop'] = false; or $SITE['bannerBottom'] = false;

You can display ads, any other important text or photo’s using text / html or PHP code.

You can place one or more at the top and or bottom and it can all be different for content / size .